createdAt,value
2024-04-30T00:00:47.771Z,99519.66
2024-04-30T00:03:18.077Z,99515.25
2024-04-30T00:05:48.179Z,99510.56
2024-04-30T00:08:21.160Z,99513.94
2024-04-30T00:10:50.469Z,99512.91
2024-04-30T00:13:20.855Z,99510.34
2024-04-30T00:15:48.642Z,99503.47
2024-04-30T00:18:20.451Z,99507.72
2024-04-30T00:20:48.090Z,99500.06
2024-04-30T00:23:23.913Z,99501.91
2024-04-30T00:25:53.117Z,99495.03
2024-04-30T00:28:24.793Z,99501.97
2024-04-30T00:30:52.625Z,99496.50
2024-04-30T00:33:22.820Z,99505.16
2024-04-30T00:35:50.463Z,99492.13
2024-04-30T00:38:23.305Z,99481.72
2024-04-30T00:40:50.989Z,99475.81
2024-04-30T00:43:21.908Z,99487.34
2024-04-30T00:45:51.159Z,99481.34
2024-04-30T00:48:22.987Z,99483.16
2024-04-30T00:50:53.670Z,99481.34
2024-04-30T00:53:26.617Z,99484.88
2024-04-30T00:55:54.602Z,99479.75
2024-04-30T00:58:24.974Z,99472.81
2024-04-30T01:00:52.833Z,99476.44
2024-04-30T01:03:23.160Z,99477.44
2024-04-30T01:05:52.302Z,99467.16
2024-04-30T01:08:22.564Z,99476.97
2024-04-30T01:10:53.092Z,99468.34
2024-04-30T01:13:23.422Z,99470.16
2024-04-30T01:15:52.588Z,99462.31
2024-04-30T01:18:22.831Z,99466.63
2024-04-30T01:20:51.980Z,99468.69
2024-04-30T01:23:24.970Z,99460.13
2024-04-30T01:25:52.561Z,99454.09
2024-04-30T01:28:22.730Z,99448.94
2024-04-30T01:30:50.425Z,99444.63
2024-04-30T01:33:20.756Z,99450.88
2024-04-30T01:35:48.409Z,99445.59
2024-04-30T01:38:20.449Z,99442.16
2024-04-30T01:40:50.684Z,99448.56
2024-04-30T01:43:20.951Z,99447.91
2024-04-30T01:45:50.090Z,99445.38
2024-04-30T01:48:20.354Z,99443.78
2024-04-30T01:50:48.062Z,99447.28
2024-04-30T01:53:18.331Z,99438.88
2024-04-30T01:55:45.930Z,99441.59
2024-04-30T01:58:18.936Z,99444.09
2024-04-30T02:00:46.645Z,99436.19
2024-04-30T02:03:16.881Z,99435.44
2024-04-30T02:05:46.990Z,99435.59
2024-04-30T02:08:17.179Z,99432.97
2024-04-30T02:10:46.394Z,99429.63
2024-04-30T02:13:19.438Z,99440.00
2024-04-30T02:15:47.158Z,99431.41
2024-04-30T02:18:17.383Z,99438.50
2024-04-30T02:20:45.012Z,99433.38
2024-04-30T02:23:15.253Z,99430.84
2024-04-30T02:25:44.084Z,99422.19
2024-04-30T02:28:14.309Z,99415.34
2024-04-30T02:31:02.783Z,99425.03
2024-04-30T02:33:50.595Z,99416.41
2024-04-30T02:36:22.375Z,99418.22
2024-04-30T02:38:54.152Z,99416.66
2024-04-30T02:41:24.475Z,99407.19
2024-04-30T02:43:56.272Z,99412.47
2024-04-30T02:46:27.548Z,99414.38
2024-04-30T02:48:57.840Z,99412.66
2024-04-30T02:51:27.705Z,99412.75
2024-04-30T02:53:57.966Z,99409.47
2024-04-30T02:56:25.589Z,99399.84
2024-04-30T02:58:55.841Z,99402.41
2024-04-30T03:01:27.741Z,99397.25
2024-04-30T03:03:59.623Z,99399.16
2024-04-30T03:06:27.260Z,99393.19
2024-04-30T03:08:57.884Z,99391.50
2024-04-30T03:11:27.087Z,99387.22
2024-04-30T03:13:57.399Z,99392.50
2024-04-30T03:16:27.803Z,99395.28
2024-04-30T03:18:59.695Z,99392.53
2024-04-30T03:21:27.420Z,99387.22
2024-04-30T03:23:57.620Z,99383.72
2024-04-30T03:26:25.398Z,99390.66
2024-04-30T03:28:55.740Z,99391.50
2024-04-30T03:31:27.569Z,99382.84
2024-04-30T03:33:59.773Z,99380.25
2024-04-30T03:36:28.855Z,99381.19
2024-04-30T03:38:59.117Z,99378.56
2024-04-30T03:41:29.421Z,99376.78
2024-04-30T03:44:00.951Z,99370.66
2024-04-30T03:46:31.291Z,99378.47
2024-04-30T03:49:01.617Z,99374.94
2024-04-30T03:51:31.930Z,99378.34
2024-04-30T03:54:01.051Z,99372.22
2024-04-30T03:56:31.275Z,99372.19
2024-04-30T03:58:58.972Z,99373.03
2024-04-30T04:01:29.221Z,99367.63
2024-04-30T04:03:59.596Z,99366.84
2024-04-30T04:06:31.525Z,99369.41
2024-04-30T04:09:01.694Z,99367.69
2024-04-30T04:11:49.365Z,99366.84
2024-04-30T04:14:35.891Z,99370.38
2024-04-30T04:17:08.618Z,99360.84
2024-04-30T04:19:41.745Z,99362.56
2024-04-30T04:22:12.251Z,99359.06
2024-04-30T04:24:42.654Z,99359.00
2024-04-30T04:27:13.540Z,99358.94
2024-04-30T04:29:43.722Z,99352.78
2024-04-30T04:32:12.978Z,99358.84
2024-04-30T04:34:45.913Z,99351.78
2024-04-30T04:37:15.022Z,99350.09
2024-04-30T04:39:45.314Z,99344.84
2024-04-30T04:42:12.935Z,99345.69
2024-04-30T04:44:43.188Z,99349.22
2024-04-30T04:47:13.486Z,99351.00
2024-04-30T04:49:43.853Z,99358.00
2024-04-30T04:52:14.202Z,99351.78
2024-04-30T04:54:44.708Z,99357.03
2024-04-30T04:57:14.953Z,99353.59
2024-04-30T04:59:42.607Z,99351.91
2024-04-30T05:02:12.943Z,99353.69
2024-04-30T05:04:43.411Z,99348.47
2024-04-30T05:07:13.709Z,99345.06
2024-04-30T05:09:41.324Z,99352.97
2024-04-30T05:12:11.650Z,99341.72
2024-04-30T05:14:40.782Z,99339.19
2024-04-30T05:17:11.106Z,99351.34
2024-04-30T05:19:38.862Z,99345.25
2024-04-30T05:22:11.800Z,99344.28
2024-04-30T05:24:39.438Z,99346.97
2024-04-30T05:27:09.642Z,99331.19
2024-04-30T05:29:38.946Z,99337.91
2024-04-30T05:32:09.282Z,99335.19
2024-04-30T05:34:37.000Z,99331.56
2024-04-30T05:37:07.551Z,99342.72
2024-04-30T05:39:39.613Z,99333.97
2024-04-30T05:42:09.826Z,99337.38
2024-04-30T05:44:37.511Z,99337.16
2024-04-30T05:47:09.963Z,99338.66
2024-04-30T05:49:37.793Z,99331.50
2024-04-30T05:52:08.760Z,99332.97
2024-04-30T05:54:39.059Z,99333.47
2024-04-30T05:57:09.357Z,99310.47
2024-04-30T05:59:36.990Z,99325.94
2024-04-30T06:02:07.673Z,99335.13
2024-04-30T06:04:36.822Z,99337.25
2024-04-30T06:07:07.585Z,99330.81
2024-04-30T06:09:39.514Z,99322.47
2024-04-30T06:12:09.980Z,99324.75
2024-04-30T06:14:39.068Z,99331.47
2024-04-30T06:17:09.408Z,99322.50
2024-04-30T06:19:37.197Z,99332.69
2024-04-30T06:22:07.819Z,99334.00
2024-04-30T06:24:35.460Z,99337.13
2024-04-30T06:27:08.717Z,99334.00
2024-04-30T06:29:40.020Z,99329.72
2024-04-30T06:32:11.780Z,99329.22
2024-04-30T06:34:41.776Z,99333.28
2024-04-30T06:37:13.598Z,99336.41
2024-04-30T06:39:43.801Z,99327.34
2024-04-30T06:42:17.975Z,99323.84
2024-04-30T06:44:47.246Z,99329.28
2024-04-30T06:47:17.401Z,99329.09
2024-04-30T06:49:45.133Z,99326.97
2024-04-30T06:52:15.561Z,99330.94
2024-04-30T06:54:44.914Z,99323.56
2024-04-30T06:57:17.865Z,99321.41
2024-04-30T06:59:45.512Z,99324.81
2024-04-30T07:02:17.823Z,99322.69
2024-04-30T07:04:47.202Z,99323.03
2024-04-30T07:07:17.493Z,99324.59
2024-04-30T07:09:45.141Z,99319.22
2024-04-30T07:12:18.178Z,99326.16
2024-04-30T07:14:45.856Z,99322.75
2024-04-30T07:17:16.315Z,99321.06
2024-04-30T07:19:44.081Z,99317.78
2024-04-30T07:22:16.043Z,99313.22
2024-04-30T07:24:43.882Z,99325.59
2024-04-30T07:27:14.147Z,99321.91
2024-04-30T07:29:46.021Z,99328.22
2024-04-30T07:32:16.472Z,99326.31
2024-04-30T07:34:44.467Z,99327.28
2024-04-30T07:37:14.797Z,99322.75
2024-04-30T07:39:44.374Z,99321.75
2024-04-30T07:42:14.590Z,99323.91
2024-04-30T07:44:44.881Z,99332.28
2024-04-30T07:47:15.238Z,99334.31
2024-04-30T07:49:44.484Z,99333.41
2024-04-30T07:52:18.684Z,99331.53
2024-04-30T07:54:47.918Z,99317.31
2024-04-30T07:57:18.169Z,99323.34
2024-04-30T07:59:48.444Z,99320.34
2024-04-30T08:02:18.919Z,99315.94
2024-04-30T08:04:46.728Z,99315.41
2024-04-30T08:07:17.284Z,99318.69
2024-04-30T08:09:46.810Z,99312.94
2024-04-30T08:12:17.030Z,99306.22
2024-04-30T08:14:44.671Z,99302.88
2024-04-30T08:17:17.835Z,99300.06
2024-04-30T08:19:45.633Z,99306.25
2024-04-30T08:22:15.970Z,99308.13
2024-04-30T08:24:43.616Z,99303.84
2024-04-30T08:27:13.884Z,99306.25
2024-04-30T08:29:42.367Z,99318.09
2024-04-30T08:32:13.161Z,99306.47
2024-04-30T08:34:43.797Z,99317.13
2024-04-30T08:37:14.181Z,99316.38
2024-04-30T08:39:41.932Z,99315.38
2024-04-30T08:42:12.459Z,99317.66
2024-04-30T08:44:41.631Z,99313.94
2024-04-30T08:47:13.991Z,99314.25
2024-04-30T08:49:51.686Z,99305.94
2024-04-30T08:52:26.111Z,99303.41
2024-04-30T08:54:57.100Z,99300.63
2024-04-30T08:57:31.770Z,99304.41
2024-04-30T09:00:00.930Z,99298.47
2024-04-30T09:02:36.559Z,99295.22
2024-04-30T09:05:07.732Z,99285.47
2024-04-30T09:07:38.469Z,99287.53
2024-04-30T09:10:08.185Z,99293.91
2024-04-30T09:12:38.463Z,99292.41
2024-04-30T09:15:06.713Z,99284.75
2024-04-30T09:17:36.978Z,99283.31
2024-04-30T09:20:10.211Z,99281.59
2024-04-30T09:22:52.888Z,99292.41
2024-04-30T09:25:35.981Z,99290.31
2024-04-30T09:28:15.596Z,99289.56
2024-04-30T09:30:43.703Z,99286.44
2024-04-30T09:33:14.523Z,99278.88
2024-04-30T09:35:48.171Z,99281.94
2024-04-30T09:38:22.660Z,99273.09
2024-04-30T09:40:50.343Z,99265.38
2024-04-30T09:43:21.376Z,99262.22
2024-04-30T09:45:50.145Z,99258.44
2024-04-30T09:48:20.700Z,99255.31
2024-04-30T09:50:52.609Z,99256.59
2024-04-30T09:53:23.108Z,99243.47
2024-04-30T09:55:52.862Z,99243.41
2024-04-30T09:58:23.229Z,99246.59
2024-04-30T10:00:50.916Z,99240.97
2024-04-30T10:03:23.866Z,99243.44
2024-04-30T10:06:17.881Z,99226.66
2024-04-30T10:08:52.460Z,99235.59
2024-04-30T10:11:20.409Z,99230.84
2024-04-30T10:13:51.880Z,99222.78
2024-04-30T10:16:22.344Z,99231.84
2024-04-30T10:18:53.306Z,99224.84
2024-04-30T10:21:35.883Z,99213.25
2024-04-30T10:24:17.389Z,99218.06
2024-04-30T10:26:47.663Z,99201.97
2024-04-30T10:29:17.946Z,99197.91
2024-04-30T10:31:49.410Z,99212.47
2024-04-30T10:34:17.686Z,99210.50
2024-04-30T10:36:52.597Z,99194.53
2024-04-30T10:39:25.756Z,99204.41
2024-04-30T10:41:57.664Z,99192.06
2024-04-30T10:44:25.387Z,99203.56
2024-04-30T10:46:59.315Z,99198.13
2024-04-30T10:49:29.651Z,99183.22
2024-04-30T10:51:59.985Z,99179.63
2024-04-30T10:54:31.719Z,99190.38
2024-04-30T10:57:00.964Z,99184.22
2024-04-30T10:59:32.545Z,99183.34
2024-04-30T11:02:00.340Z,99181.38
2024-04-30T11:04:33.065Z,99188.53
2024-04-30T11:07:05.256Z,99170.34
2024-04-30T11:09:42.833Z,99172.69
2024-04-30T11:12:10.584Z,99174.22
2024-04-30T11:14:48.135Z,99175.78
2024-04-30T11:17:18.457Z,99167.03
2024-04-30T11:19:50.374Z,99171.81
2024-04-30T11:22:20.786Z,99171.53
2024-04-30T11:24:51.160Z,99172.56
2024-04-30T11:27:18.816Z,99166.28
2024-04-30T11:29:49.132Z,99173.44
2024-04-30T11:32:18.375Z,99165.38
2024-04-30T11:34:49.785Z,99168.72
2024-04-30T11:37:20.481Z,99164.25
2024-04-30T11:39:52.676Z,99175.19
2024-04-30T11:42:27.390Z,99154.09
2024-04-30T11:45:01.928Z,99159.19
2024-04-30T11:47:29.760Z,99145.72
2024-04-30T11:50:00.991Z,99148.13
2024-04-30T11:52:31.422Z,99150.72
2024-04-30T11:55:03.438Z,99146.59
2024-04-30T11:57:31.004Z,99153.63
2024-04-30T12:00:01.334Z,99162.81
2024-04-30T12:02:32.118Z,99154.72
2024-04-30T12:05:02.611Z,99152.53
2024-04-30T12:07:34.683Z,99145.25
2024-04-30T12:10:10.430Z,99144.28
2024-04-30T12:12:41.181Z,99152.88
2024-04-30T12:15:13.318Z,99149.66
2024-04-30T12:17:41.142Z,99160.28
2024-04-30T12:20:12.397Z,99142.16
2024-04-30T12:22:42.806Z,99137.78
2024-04-30T12:25:15.176Z,99144.88
2024-04-30T12:27:42.956Z,99147.16
2024-04-30T12:30:13.859Z,99137.75
2024-04-30T12:32:41.577Z,99138.72
2024-04-30T12:35:11.926Z,99134.84
2024-04-30T12:37:42.293Z,99136.81
2024-04-30T12:40:14.402Z,99112.91
2024-04-30T12:42:43.170Z,99115.91
2024-04-30T12:45:13.507Z,99107.41
2024-04-30T12:47:41.267Z,99099.06
2024-04-30T12:50:11.730Z,99102.56
2024-04-30T12:52:42.138Z,99097.94
2024-04-30T12:55:16.311Z,99109.84
2024-04-30T12:57:43.991Z,99116.94
2024-04-30T13:00:15.745Z,99113.84
2024-04-30T13:02:44.991Z,99102.81
2024-04-30T13:05:21.743Z,99107.38
2024-04-30T13:08:04.429Z,99097.94
2024-04-30T13:10:39.273Z,99097.09
2024-04-30T13:13:09.722Z,99098.47
2024-04-30T13:15:37.364Z,99107.75
2024-04-30T13:18:08.290Z,99105.59
2024-04-30T13:20:39.609Z,99103.16
2024-04-30T13:23:12.581Z,99106.00
2024-04-30T13:25:41.920Z,99099.97
2024-04-30T13:28:12.257Z,99101.75
2024-04-30T13:30:42.634Z,99086.44
2024-04-30T13:33:12.303Z,99078.47
2024-04-30T13:35:42.603Z,99083.81
2024-04-30T13:38:13.309Z,99075.22
2024-04-30T13:40:44.085Z,99085.63
2024-04-30T13:43:12.195Z,99070.72
2024-04-30T13:45:42.654Z,99094.84
2024-04-30T13:48:14.575Z,99074.63
2024-04-30T13:50:43.769Z,99069.03
2024-04-30T13:53:16.826Z,99083.19
2024-04-30T13:55:46.162Z,99073.63
2024-04-30T13:58:16.827Z,99071.97
2024-04-30T14:00:44.544Z,99063.75
2024-04-30T14:03:14.986Z,99064.47
2024-04-30T14:05:42.681Z,99072.59
2024-04-30T14:08:13.317Z,99061.66
2024-04-30T14:10:43.762Z,99063.16
2024-04-30T14:13:14.173Z,99044.16
2024-04-30T14:15:45.933Z,99038.00
2024-04-30T14:18:13.619Z,99045.81
2024-04-30T14:20:43.948Z,99042.13
2024-04-30T14:23:13.121Z,99057.19
2024-04-30T14:25:46.254Z,99040.00
2024-04-30T14:28:19.624Z,99039.81
2024-04-30T14:30:50.278Z,99032.34
2024-04-30T14:33:19.853Z,99028.38
2024-04-30T14:36:06.056Z,99033.00
2024-04-30T14:38:40.534Z,99021.09
2024-04-30T14:41:15.700Z,99024.53
2024-04-30T14:43:43.366Z,99030.09
2024-04-30T14:46:13.707Z,99016.69
2024-04-30T14:48:43.562Z,99028.44
2024-04-30T14:51:14.045Z,99020.31
2024-04-30T14:53:41.732Z,99029.34
2024-04-30T14:56:17.906Z,99025.16
2024-04-30T14:58:47.181Z,99024.09
2024-04-30T15:01:17.588Z,99020.00
2024-04-30T15:03:45.345Z,99024.56
2024-04-30T15:06:20.488Z,99026.75
2024-04-30T15:08:48.602Z,99020.84
2024-04-30T15:11:26.206Z,99031.00
2024-04-30T15:13:54.337Z,99021.34
2024-04-30T15:16:24.618Z,99029.53
2024-04-30T15:18:52.540Z,99027.19
2024-04-30T15:21:22.863Z,99023.69
2024-04-30T15:23:50.490Z,99016.16
2024-04-30T15:26:20.686Z,99017.09
2024-04-30T15:28:53.652Z,99025.63
2024-04-30T15:31:24.443Z,99025.41
2024-04-30T15:33:53.736Z,99016.38
2024-04-30T15:36:24.007Z,99022.06
2024-04-30T15:38:54.332Z,99031.97
2024-04-30T15:41:22.299Z,99021.81
2024-04-30T15:43:57.915Z,99035.69
2024-04-30T15:46:25.561Z,99024.00
2024-04-30T15:48:55.916Z,99025.91
2024-04-30T15:51:25.715Z,99020.69
2024-04-30T15:53:56.000Z,99027.44
2024-04-30T15:56:23.728Z,99036.72
2024-04-30T15:58:56.734Z,99020.31
2024-04-30T16:01:32.098Z,99027.06
2024-04-30T16:04:02.463Z,99019.56
2024-04-30T16:06:30.109Z,99029.25
2024-04-30T16:09:00.499Z,99025.59
2024-04-30T16:11:29.723Z,99022.31
2024-04-30T16:13:59.970Z,99032.81
2024-04-30T16:16:30.397Z,99035.00
2024-04-30T16:19:00.728Z,99037.78
2024-04-30T16:21:28.351Z,99039.84
2024-04-30T16:23:58.589Z,99030.75
2024-04-30T16:26:26.201Z,99034.31
2024-04-30T16:28:56.895Z,99031.72
2024-04-30T16:31:24.655Z,99030.38
2024-04-30T16:33:57.674Z,99036.63
2024-04-30T16:36:29.573Z,99031.97
2024-04-30T16:38:57.220Z,99043.06
2024-04-30T16:41:27.541Z,99035.47
2024-04-30T16:43:55.532Z,99042.97
2024-04-30T16:46:25.702Z,99041.78
2024-04-30T16:48:57.478Z,99040.53
2024-04-30T16:51:27.883Z,99037.41
2024-04-30T16:53:56.959Z,99036.78
2024-04-30T16:56:27.294Z,99043.50
2024-04-30T16:58:57.730Z,99046.38
2024-04-30T17:01:25.411Z,99044.44
2024-04-30T17:03:58.767Z,99042.75
2024-04-30T17:06:28.038Z,99044.56
2024-04-30T17:08:58.428Z,99042.97
2024-04-30T17:11:27.592Z,99039.38
2024-04-30T17:13:57.871Z,99036.75
2024-04-30T17:16:25.625Z,99024.22
2024-04-30T17:18:58.666Z,99037.34
2024-04-30T17:21:27.860Z,99031.50
2024-04-30T17:23:58.312Z,99028.44
2024-04-30T17:26:27.467Z,99033.00
2024-04-30T17:28:58.129Z,99041.16
2024-04-30T17:31:25.910Z,99027.50
2024-04-30T17:33:58.904Z,99036.63
2024-04-30T17:36:26.565Z,99035.44
2024-04-30T17:38:56.810Z,99030.97
2024-04-30T17:41:25.769Z,99041.06
2024-04-30T17:43:56.086Z,99036.41
2024-04-30T17:46:26.826Z,99041.59
2024-04-30T17:49:02.377Z,99044.03
2024-04-30T17:51:31.587Z,99043.59
2024-04-30T17:54:01.852Z,99041.78
2024-04-30T17:56:31.058Z,99055.00
2024-04-30T17:59:01.731Z,99066.00
2024-04-30T18:01:29.462Z,99050.34
2024-04-30T18:04:02.945Z,99055.22
2024-04-30T18:06:30.800Z,99057.47
2024-04-30T18:09:01.029Z,99053.13
2024-04-30T18:11:29.731Z,99057.56
2024-04-30T18:14:00.191Z,99060.28
2024-04-30T18:16:28.181Z,99073.53
2024-04-30T18:18:58.833Z,99057.13
2024-04-30T18:21:35.464Z,99065.38
2024-04-30T18:24:07.743Z,99053.63
2024-04-30T18:26:40.769Z,99058.44
2024-04-30T18:29:16.917Z,99062.00
2024-04-30T18:31:53.170Z,99060.63
2024-04-30T18:34:23.752Z,99064.63
2024-04-30T18:36:55.841Z,99073.44
2024-04-30T18:39:26.214Z,99071.91
2024-04-30T18:41:53.999Z,99067.78
2024-04-30T18:44:24.661Z,99063.00
2024-04-30T18:46:53.925Z,99082.75
2024-04-30T18:49:24.342Z,99088.97
2024-04-30T18:51:56.548Z,99090.34
2024-04-30T18:54:27.277Z,99096.28
2024-04-30T18:56:56.429Z,99093.19
2024-04-30T18:59:27.043Z,99113.94
2024-04-30T19:01:55.277Z,99131.84
2024-04-30T19:04:25.855Z,99119.00
2024-04-30T19:06:56.639Z,99115.38
2024-04-30T19:09:27.823Z,99110.97
2024-04-30T19:11:55.600Z,99111.88
2024-04-30T19:14:28.551Z,99106.28
2024-04-30T19:16:57.001Z,99106.63
2024-04-30T19:19:27.540Z,99107.97
2024-04-30T19:22:00.160Z,99125.84
2024-04-30T19:24:30.541Z,99130.41
2024-04-30T19:26:59.929Z,99116.63
2024-04-30T19:29:30.348Z,99117.00
2024-04-30T19:31:58.032Z,99114.63
2024-04-30T19:34:28.501Z,99116.50
2024-04-30T19:36:59.009Z,99110.53
2024-04-30T19:39:29.412Z,99120.22
2024-04-30T19:41:58.780Z,99124.63
2024-04-30T19:44:29.402Z,99111.72
2024-04-30T19:46:57.187Z,99118.84
2024-04-30T19:49:27.721Z,99118.94
2024-04-30T19:51:55.755Z,99130.66
2024-04-30T19:54:28.934Z,99131.72
2024-04-30T19:56:57.158Z,99130.22
2024-04-30T19:59:27.513Z,99126.97
2024-04-30T20:01:55.190Z,99129.84
2024-04-30T20:04:25.717Z,99134.44
2024-04-30T20:06:53.582Z,99137.13
2024-04-30T20:09:24.117Z,99134.56
2024-04-30T20:11:55.994Z,99130.34
2024-04-30T20:14:26.341Z,99136.44
2024-04-30T20:16:54.117Z,99133.91
2024-04-30T20:19:24.333Z,99135.84
2024-04-30T20:21:53.538Z,99130.66
2024-04-30T20:24:23.776Z,99136.91
2024-04-30T20:26:51.816Z,99134.53
2024-04-30T20:29:24.839Z,99144.28
2024-04-30T20:31:53.409Z,99140.66
2024-04-30T20:34:24.888Z,99155.50
2024-04-30T20:36:52.753Z,99148.47
2024-04-30T20:39:23.162Z,99137.84
2024-04-30T20:41:50.984Z,99132.44
2024-04-30T20:44:21.223Z,99129.81
2024-04-30T20:46:53.098Z,99132.53
2024-04-30T20:49:23.484Z,99133.38
2024-04-30T20:51:51.176Z,99130.75
2024-04-30T20:54:21.438Z,99124.69
2024-04-30T20:56:49.149Z,99133.69
2024-04-30T20:59:19.436Z,99133.91
2024-04-30T21:01:47.689Z,99133.84
2024-04-30T21:04:20.784Z,99125.09
2024-04-30T21:06:48.663Z,99128.75
2024-04-30T21:09:19.087Z,99125.31
2024-04-30T21:11:47.189Z,99119.38
2024-04-30T21:14:17.432Z,99119.47
2024-04-30T21:16:45.111Z,99125.66
2024-04-30T21:19:15.380Z,99118.69
2024-04-30T21:21:47.304Z,99126.50
2024-04-30T21:24:17.586Z,99123.81
2024-04-30T21:26:45.195Z,99118.53
2024-04-30T21:29:15.585Z,99114.13
2024-04-30T21:31:48.948Z,99115.91
2024-04-30T21:34:18.383Z,99112.50
2024-04-30T21:36:53.391Z,99124.66
2024-04-30T21:39:21.119Z,99112.44
2024-04-30T21:41:51.361Z,99118.69
2024-04-30T21:44:19.010Z,99113.72
2024-04-30T21:46:49.252Z,99119.13
2024-04-30T21:49:16.996Z,99116.69
2024-04-30T21:51:47.388Z,99121.13
2024-04-30T21:54:17.945Z,99119.44
2024-04-30T21:56:48.331Z,99129.97
2024-04-30T21:59:17.451Z,99137.84
2024-04-30T22:01:50.878Z,99129.13
2024-04-30T22:04:18.359Z,99135.22
2024-04-30T22:06:48.667Z,99141.25
2024-04-30T22:09:19.026Z,99142.03
2024-04-30T22:11:51.211Z,99133.22
2024-04-30T22:14:18.872Z,99136.59
2024-04-30T22:16:49.079Z,99137.41
2024-04-30T22:19:18.255Z,99133.78
2024-04-30T22:21:49.881Z,99136.34
2024-04-30T22:24:20.335Z,99128.34
2024-04-30T22:26:53.688Z,99133.56
2024-04-30T22:29:22.597Z,99132.94
2024-04-30T22:31:52.918Z,99135.66
2024-04-30T22:34:20.654Z,99127.19
2024-04-30T22:36:56.836Z,99138.88
2024-04-30T22:39:29.084Z,99131.44
2024-04-30T22:41:59.447Z,99131.72
2024-04-30T22:44:27.051Z,99129.34
2024-04-30T22:46:57.319Z,99132.91
2024-04-30T22:49:26.517Z,99126.00
2024-04-30T22:51:56.885Z,99137.94
2024-04-30T22:54:28.816Z,99130.19
2024-04-30T22:56:59.139Z,99126.63
2024-04-30T22:59:30.880Z,99125.00
2024-04-30T23:01:58.704Z,99130.25
2024-04-30T23:04:29.251Z,99132.66
2024-04-30T23:06:57.145Z,99136.78
2024-04-30T23:09:29.940Z,99128.72
2024-04-30T23:12:01.447Z,99138.09
2024-04-30T23:14:31.732Z,99140.41
2024-04-30T23:17:00.895Z,99138.63
2024-04-30T23:19:31.251Z,99138.47
2024-04-30T23:22:03.079Z,99149.78
2024-04-30T23:24:30.937Z,99142.56
2024-04-30T23:27:03.943Z,99138.78
2024-04-30T23:29:31.635Z,99142.03
2024-04-30T23:32:01.999Z,99131.34
2024-04-30T23:34:29.669Z,99133.63
2024-04-30T23:37:00.202Z,99137.03
2024-04-30T23:39:29.522Z,99139.59
2024-04-30T23:41:59.755Z,99142.97
2024-04-30T23:44:30.126Z,99143.81
2024-04-30T23:47:00.441Z,99138.47
2024-04-30T23:49:28.144Z,99141.06
2024-04-30T23:51:58.392Z,99147.38
2024-04-30T23:54:30.143Z,99150.25
2024-04-30T23:56:57.680Z,99149.66
2024-04-30T23:59:28.096Z,99142.19
